Time;durP1;ratioP1;P1;durP2;ratioP2;P2;SDS_P1;SDS_P2;PMS_P1;PMS_P2;Temp;Humidity;BMP_temperature;BMP_pressure;BME280_temperature;BME280_humidity;BME280_pressure;Samples;Min_cycle;Max_cycle;Signal;HPM_P1;HPM_P2
2021/07/15 00:02:52;;;;;;;;;;;;;;;;;;10293666;28;20251;-64
2021/07/15 00:07:49;;;;;;;;;;;;;;;;;;10290888;28;19913;-65
2021/07/15 00:12:47;;;;;;;;;;;;;;;;;;10299571;28;19917;-64
2021/07/15 00:17:44;;;;;;;;;;;;;;;;;;10291823;28;19920;-65
2021/07/15 00:22:41;;;;;;;;;;;;;;;;;;10291829;28;20470;-64
2021/07/15 00:27:39;;;;;;;;;;;;;;;;;;10291578;28;19913;-64
2021/07/15 00:32:36;;;;;;;;;;;;;;;;;;10289011;28;19948;-64
2021/07/15 00:37:33;;;;;;;;;;;;;;;;;;10292004;28;19919;-64
2021/07/15 00:42:31;;;;;;;;;;;;;;;;;;10293963;28;19917;-64
2021/07/15 00:47:29;;;;;;;;;;;;;;;;;;10291399;28;19921;-64
2021/07/15 00:52:26;;;;;;;;;;;;;;;;;;10291408;28;19913;-64
2021/07/15 00:57:23;;;;;;;;;;;;;;;;;;10288845;28;20343;-64
2021/07/15 01:02:20;;;;;;;;;;;;;;;;;;10291560;28;19978;-64
2021/07/15 01:07:18;;;;;;;;;;;;;;;;;;10297215;28;19935;-64
2021/07/15 01:12:15;;;;;;;;;;;;;;;;;;10289951;28;19966;-64
2021/07/15 01:17:12;;;;;;;;;;;;;;;;;;10290369;28;19938;-64
2021/07/15 01:22:10;;;;;;;;;;;;;;;;;;10297056;28;19921;-64
2021/07/15 01:27:07;;;;;;;;;;;;;;;;;;10290521;28;19913;-64
2021/07/15 01:32:04;;;;;;;;;;;;;;;;;;10288754;28;19917;-64
2021/07/15 01:37:02;;;;;;;;;;;;;;;;;;10290298;28;19917;-64
2021/07/15 01:41:59;;;;;;;;;;;;;;;;;;10292015;28;20394;-64
2021/07/15 01:46:56;;;;;;;;;;;;;;;;;;10297126;28;19970;-64
2021/07/15 01:51:54;;;;;;;;;;;;;;;;;;10291248;28;19913;-64
2021/07/15 01:56:51;;;;;;;;;;;;;;;;;;10298661;28;19913;-64
2021/07/15 02:01:48;;;;;;;;;;;;;;;;;;10301859;28;19947;-64
2021/07/15 02:06:45;;;;;;;;;;;;;;;;;;10297166;28;20316;-64
2021/07/15 02:11:43;;;;;;;;;;;;;;;;;;10297643;28;20425;-64
2021/07/15 02:16:40;;;;;;;;;;;;;;;;;;10300772;28;19916;-64
2021/07/15 02:21:37;;;;;;;;;;;;;;;;;;10294998;28;19935;-65
2021/07/15 02:26:35;;;;;;;;;;;;;;;;;;10293910;28;19913;-64
2021/07/15 02:31:32;;;;;;;;;;;;;;;;;;10297558;28;19913;-64
2021/07/15 02:36:29;;;;;;;;;;;;;;;;;;10288802;28;19933;-64
2021/07/15 02:41:26;;;;;;;;;;;;;;;;;;10303954;28;19935;-64
2021/07/15 02:46:24;;;;;;;;;;;;;;;;;;10301332;28;20007;-64
2021/07/15 02:51:21;;;;;;;;;;;;;;;;;;10292354;28;19913;-64
2021/07/15 02:56:18;;;;;;;;;;;;;;;;;;10292141;28;20015;-64
2021/07/15 03:01:15;;;;;;;;;;;;;;;;;;10290738;28;19928;-64
2021/07/15 03:06:13;;;;;;;;;;;;;;;;;;10293834;28;19970;-64
2021/07/15 03:11:11;;;;;;;;;;;;;;;;;;10289861;28;19913;-63
2021/07/15 03:16:08;;;;;;;;;;;;;;;;;;10292895;28;20286;-63
2021/07/15 03:21:06;;;;;;;;;;;;;;;;;;10286559;28;19943;-64
2021/07/15 03:26:03;;;;;;;;;;;;;;;;;;10297960;28;20425;-64
2021/07/15 03:31:00;;;;;;;;;;;;;;;;;;10301426;28;19946;-64
2021/07/15 03:35:58;;;;;;;;;;;;;;;;;;10291031;28;19929;-64
2021/07/15 03:40:55;;;;;;;;;;;;;;;;;;10289876;28;19913;-64
2021/07/15 03:45:52;;;;;;;;;;;;;;;;;;10296711;28;20035;-63
2021/07/15 03:50:50;;;;;;;;;;;;;;;;;;10292047;28;20401;-64
2021/07/15 03:55:47;;;;;;;;;;;;;;;;;;10297252;28;20311;-66
2021/07/15 04:00:45;;;;;;;;;;;;;;;;;;10292719;28;19967;-66
2021/07/15 04:05:42;;;;;;;;;;;;;;;;;;10294125;28;19990;-63
2021/07/15 04:10:39;;;;;;;;;;;;;;;;;;10290301;28;19912;-66
2021/07/15 04:15:37;;;;;;;;;;;;;;;;;;10290865;28;19921;-66
2021/07/15 04:20:34;;;;;;;;;;;;;;;;;;10301921;28;19995;-65
2021/07/15 04:25:31;;;;;;;;;;;;;;;;;;10285866;28;19924;-66
2021/07/15 04:30:29;;;;;;;;;;;;;;;;;;10292808;28;19967;-65
2021/07/15 04:35:26;;;;;;;;;;;;;;;;;;10293427;28;19975;-66
2021/07/15 04:40:23;;;;;;;;;;;;;;;;;;10293177;28;19917;-66
2021/07/15 04:45:23;;;;;;;;;;;;;;;;;;10285949;28;20337;-65
2021/07/15 04:50:20;;;;;;;;;;;;;;;;;;10281120;28;19952;-65
2021/07/15 04:55:17;;;;;;;;;;;;;;;;;;10286472;28;19917;-66
2021/07/15 05:00:15;;;;;;;;;;;;;;;;;;10289627;28;20402;-65
2021/07/15 05:05:13;;;;;;;;;;;;;;;;;;10291498;28;19932;-65
2021/07/15 05:10:10;;;;;;;;;;;;;;;;;;10291192;28;19921;-65
2021/07/15 05:15:07;;;;;;;;;;;;;;;;;;10289462;28;19948;-65
2021/07/15 05:20:04;;;;;;;;;;;;;;;;;;10292500;28;20312;-65
2021/07/15 05:25:02;;;;;;;;;;;;;;;;;;10297096;28;19917;-65
2021/07/15 05:29:59;;;;;;;;;;;;;;;;;;10292026;28;19912;-65
2021/07/15 05:34:57;;;;;;;;;;;;;;;;;;10287565;28;19971;-64
2021/07/15 05:39:54;;;;;;;;;;;;;;;;;;10295538;28;19995;-64
2021/07/15 05:44:52;;;;;;;;;;;;;;;;;;10294430;28;19917;-64
2021/07/15 05:49:50;;;;;;;;;;;;;;;;;;10295434;28;19924;-64
2021/07/15 05:54:47;;;;;;;;;;;;;;;;;;10290880;28;19917;-64
2021/07/15 05:59:44;;;;;;;;;;;;;;;;;;10293048;28;20020;-63
2021/07/15 06:04:42;;;;;;;;;;;;;;;;;;10291507;28;19927;-64
2021/07/15 06:09:39;;;;;;;;;;;;;;;;;;10292114;28;20519;-63
2021/07/15 06:14:36;;;;;;;;;;;;;;;;;;10253307;28;19913;-64
2021/07/15 06:19:34;;;;;;;;;;;;;;;;;;10301304;28;19909;-64
2021/07/15 06:24:31;;;;;;;;;;;;;;;;;;10300792;28;20004;-64
2021/07/15 06:29:28;;;;;;;;;;;;;;;;;;10296416;28;20228;-63
2021/07/15 06:39:31;;;;;;;;;;;;;;;;;;10314326;27;19928;-60
2021/07/15 06:44:28;;;;;;;;;;;;;;;;;;10332887;28;20400;-59
2021/07/15 06:49:26;;;;;;;;;;;;;;;;;;10321428;28;19925;-57
2021/07/15 06:54:23;;;;;;;;;;;;;;;;;;10338052;28;20003;-56
2021/07/15 06:59:20;;;;;;;;;;;;;;;;;;10346247;28;19978;-56
2021/07/15 07:04:18;;;;;;;;;;;;;;;;;;10339913;28;19967;-57
2021/07/15 07:09:16;;;;;;;;;;;;;;;;;;10323286;28;19921;-57
2021/07/15 07:14:13;;;;;;;;;;;;;;;;;;10312300;28;19925;-58
2021/07/15 07:19:11;;;;;;;;;;;;;;;;;;10337977;28;19935;-57
2021/07/15 07:24:08;;;;;;;;;;;;;;;;;;10335480;28;20410;-63
2021/07/15 07:29:06;;;;;;;;;;;;;;;;;;10336322;28;20283;-59
2021/07/15 07:34:03;;;;;;;;;;;;;;;;;;10325844;28;20599;-57
2021/07/15 07:39:01;;;;;;;;;;;;;;;;;;10331342;28;19921;-58
2021/07/15 07:43:58;;;;;;;;;;;;;;;;;;10331340;28;20292;-56
2021/07/15 07:48:55;;;;;;;;;;;;;;;;;;10321540;28;19913;-57
2021/07/15 07:53:53;;;;;;;;;;;;;;;;;;10314681;28;19921;-57
2021/07/15 07:58:51;;;;;;;;;;;;;;;;;;10309719;28;19927;-58
2021/07/15 08:03:48;;;;;;;;;;;;;;;;;;10324702;28;20415;-57
2021/07/15 08:08:45;;;;;;;;;;;;;;;;;;10314720;28;19943;-56
2021/07/15 08:13:43;;;;;;;;;;;;;;;;;;10295059;28;19916;-60
2021/07/15 08:18:40;;;;;;;;;;;;;;;;;;10288089;28;19925;-59
2021/07/15 08:23:37;;;;;;;;;;;;;;;;;;10293168;28;20327;-57
2021/07/15 08:28:35;;;;;;;;;;;;;;;;;;10309353;28;20383;-57
2021/07/15 08:33:32;;;;;;;;;;;;;;;;;;10276244;28;19940;-60
2021/07/15 08:38:29;;;;;;;;;;;;;;;;;;10307041;28;19928;-61
2021/07/15 08:43:26;;;;;;;;;;;;;;;;;;10289296;28;20384;-57
2021/07/15 08:48:24;;;;;;;;;;;;;;;;;;10296098;28;19948;-57
2021/07/15 08:53:21;;;;;;;;;;;;;;;;;;10278599;28;20199;-57
2021/07/15 08:58:18;;;;;;;;;;;;;;;;;;10293557;28;20261;-59
2021/07/15 09:03:15;;;;;;;;;;;;;;;;;;10287550;28;19917;-57
2021/07/15 09:13:12;;;;;;;;;;;;;;;;;;10195363;28;20065;-56
2021/07/15 09:18:09;;;;;;;;;;;;;;;;;;10173460;28;19918;-58
2021/07/15 09:23:06;;;;;;;;;;;;;;;;;;10237376;28;19917;-56
2021/07/15 09:28:04;;;;;;;;;;;;;;;;;;10228938;28;19960;-57
2021/07/15 09:33:01;;;;;;;;;;;;;;;;;;10224274;28;21493;-58
2021/07/15 09:37:58;;;;;;;;;;;;;;;;;;10232170;28;19925;-57
2021/07/15 09:42:59;;;;;;;;;;;;;;;;;;10221496;28;20042;-56
2021/07/15 09:47:57;;;;;;;;;;;;;;;;;;10209946;28;20012;-59
2021/07/15 09:52:54;;;;;;;;;;;;;;;;;;10225164;28;19921;-58
2021/07/15 09:57:51;;;;;;;;;;;;;;;;;;10245759;28;19925;-60
2021/07/15 10:02:49;;;;;;;;;;;;;;;;;;10227791;28;19927;-60
2021/07/15 10:07:46;;;;;;;;;;;;;;;;;;10223931;28;19921;-60
2021/07/15 10:12:43;;;;;;;;;;;;;;;;;;10218074;28;19929;-61
2021/07/15 10:17:40;;;;;;;;;;;;;;;;;;10233718;28;20261;-62
2021/07/15 10:22:39;;;;;;;;;;;;;;;;;;10225818;28;20350;-62
2021/07/15 10:27:37;;;;;;;;;;;;;;;;;;10228984;28;20387;-61
2021/07/15 10:32:35;;;;;;;;;;;;;;;;;;10222283;28;19956;-61
2021/07/15 10:37:32;;;;;;;;;;;;;;;;;;10219329;28;20408;-60
2021/07/15 10:42:30;;;;;;;;;;;;;;;;;;10183734;28;19928;-62
2021/07/15 10:47:27;;;;;;;;;;;;;;;;;;10202732;28;19972;-61
2021/07/15 10:52:24;;;;;;;;;;;;;;;;;;10202868;28;20395;-61
2021/07/15 10:57:22;;;;;;;;;;;;;;;;;;10204469;28;20314;-62
2021/07/15 11:02:19;;;;;;;;;;;;;;;;;;10198914;28;19936;-62
2021/07/15 11:07:17;;;;;;;;;;;;;;;;;;10220563;28;20166;-61
2021/07/15 11:12:14;;;;;;;;;;;;;;;;;;10234730;28;19948;-62
2021/07/15 11:17:11;;;;;;;;;;;;;;;;;;10215111;28;19940;-61
2021/07/15 11:22:08;;;;;;;;;;;;;;;;;;10230486;28;20424;-63
2021/07/15 11:27:06;;;;;;;;;;;;;;;;;;10235229;28;20494;-60
2021/07/15 11:32:03;;;;;;;;;;;;;;;;;;10223691;28;19913;-59
2021/07/15 11:37:00;;;;;;;;;;;;;;;;;;10230046;28;19928;-59
2021/07/15 11:41:58;;;;;;;;;;;;;;;;;;10241529;28;19918;-58
2021/07/15 11:46:55;;;;;;;;;;;;;;;;;;10244099;28;19922;-58
2021/07/15 11:51:52;;;;;;;;;;;;;;;;;;10236019;28;19922;-58
2021/07/15 11:56:49;;;;;;;;;;;;;;;;;;10243223;28;19930;-61
2021/07/15 12:01:47;;;;;;;;;;;;;;;;;;10234901;28;19965;-59
2021/07/15 12:06:45;;;;;;;;;;;;;;;;;;10239720;28;19964;-62
2021/07/15 12:11:42;;;;;;;;;;;;;;;;;;10241588;28;19921;-61
2021/07/15 12:16:44;;;;;;;;;;;;;;;;;;10234553;28;19964;-60
2021/07/15 12:21:43;;;;;;;;;;;;;;;;;;10257289;28;19917;-59
2021/07/15 12:26:40;;;;;;;;;;;;;;;;;;10235213;28;19917;-59
2021/07/15 12:31:37;;;;;;;;;;;;;;;;;;10238935;28;19917;-61
2021/07/15 12:36:35;;;;;;;;;;;;;;;;;;10232476;28;20449;-61
2021/07/15 12:41:32;;;;;;;;;;;;;;;;;;10202440;28;19925;-61
2021/07/15 12:46:29;;;;;;;;;;;;;;;;;;10229890;28;19925;-60
2021/07/15 12:51:27;;;;;;;;;;;;;;;;;;10247363;28;19918;-61
2021/07/15 12:56:24;;;;;;;;;;;;;;;;;;10239109;28;19936;-60
2021/07/15 13:01:21;;;;;;;;;;;;;;;;;;10231398;28;19918;-61
2021/07/15 13:06:19;;;;;;;;;;;;;;;;;;10240616;28;19976;-57
2021/07/15 13:16:32;;;;;;;;;;;;;;;;;;10227869;28;19921;-57
2021/07/15 13:21:29;;;;;;;;;;;;;;;;;;10199740;28;19925;-58
2021/07/15 13:26:27;;;;;;;;;;;;;;;;;;10241103;28;19924;-59
2021/07/15 13:31:24;;;;;;;;;;;;;;;;;;10221820;28;19952;-58
2021/07/15 13:36:21;;;;;;;;;;;;;;;;;;10214148;28;20008;-60
2021/07/15 13:41:18;;;;;;;;;;;;;;;;;;10221104;28;20671;-59
2021/07/15 13:46:18;;;;;;;;;;;;;;;;;;10217703;28;19918;-58
2021/07/15 13:51:15;;;;;;;;;;;;;;;;;;10239196;28;19947;-60
2021/07/15 13:56:12;;;;;;;;;;;;;;;;;;10229001;28;20399;-60
2021/07/15 14:01:10;;;;;;;;;;;;;;;;;;10227950;28;20357;-58
2021/07/15 14:06:09;;;;;;;;;;;;;;;;;;10228859;28;19952;-60
2021/07/15 14:11:06;;;;;;;;;;;;;;;;;;10226571;28;19925;-61
2021/07/15 14:16:03;;;;;;;;;;;;;;;;;;10220689;28;19922;-59
2021/07/15 14:21:01;;;;;;;;;;;;;;;;;;10242874;28;19957;-63
2021/07/15 14:25:58;;;;;;;;;;;;;;;;;;10230943;28;19917;-57
2021/07/15 14:30:55;;;;;;;;;;;;;;;;;;10234130;28;19925;-62
2021/07/15 14:35:53;;;;;;;;;;;;;;;;;;10237192;28;20220;-58
2021/07/15 14:40:51;;;;;;;;;;;;;;;;;;10238202;28;19913;-62
2021/07/15 14:45:48;;;;;;;;;;;;;;;;;;10236364;28;19995;-60
2021/07/15 14:50:46;;;;;;;;;;;;;;;;;;10219922;28;21040;-58
2021/07/15 14:55:43;;;;;;;;;;;;;;;;;;10244543;28;19933;-57
2021/07/15 15:00:40;;;;;;;;;;;;;;;;;;10242056;28;19940;-57
2021/07/15 15:05:38;;;;;;;;;;;;;;;;;;10238861;28;19924;-57
2021/07/15 15:10:35;;;;;;;;;;;;;;;;;;10217292;28;19921;-57
2021/07/15 15:15:32;;;;;;;;;;;;;;;;;;10220577;28;19932;-57
2021/07/15 15:20:29;;;;;;;;;;;;;;;;;;10221905;28;19925;-58
2021/07/15 15:25:27;;;;;;;;;;;;;;;;;;10215982;28;19988;-60
2021/07/15 15:30:24;;;;;;;;;;;;;;;;;;10237915;28;20359;-60
2021/07/15 15:35:21;;;;;;;;;;;;;;;;;;10208869;28;19957;-57
2021/07/15 15:40:19;;;;;;;;;;;;;;;;;;10217084;28;20006;-57
2021/07/15 15:45:16;;;;;;;;;;;;;;;;;;10241849;28;20389;-59
2021/07/15 15:50:13;;;;;;;;;;;;;;;;;;10243890;28;19917;-57
2021/07/15 15:55:11;;;;;;;;;;;;;;;;;;10250024;28;19932;-58
2021/07/15 16:00:09;;;;;;;;;;;;;;;;;;10257758;28;20541;-57
2021/07/15 16:05:09;;;;;;;;;;;;;;;;;;10251958;28;19957;-60
2021/07/15 16:10:06;;;;;;;;;;;;;;;;;;10247310;28;20430;-56
2021/07/15 16:15:05;;;;;;;;;;;;;;;;;;10242776;28;19921;-60
2021/07/15 16:20:02;;;;;;;;;;;;;;;;;;10242104;28;19960;-56
2021/07/15 16:24:59;;;;;;;;;;;;;;;;;;10230844;28;20399;-58
2021/07/15 16:29:57;;;;;;;;;;;;;;;;;;10218027;28;20282;-58
2021/07/15 16:34:54;;;;;;;;;;;;;;;;;;10235682;28;20382;-57
2021/07/15 16:39:51;;;;;;;;;;;;;;;;;;10218140;28;19913;-58
2021/07/15 16:44:48;;;;;;;;;;;;;;;;;;10238731;28;19917;-60
2021/07/15 16:49:46;;;;;;;;;;;;;;;;;;10239180;28;20395;-61
2021/07/15 16:54:43;;;;;;;;;;;;;;;;;;10247432;28;19917;-59
2021/07/15 16:59:40;;;;;;;;;;;;;;;;;;10223868;28;19917;-61
2021/07/15 17:04:38;;;;;;;;;;;;;;;;;;10232570;28;19918;-61
2021/07/15 17:09:35;;;;;;;;;;;;;;;;;;10232213;28;20504;-59
2021/07/15 17:14:32;;;;;;;;;;;;;;;;;;10216500;28;20005;-63
2021/07/15 17:19:30;;;;;;;;;;;;;;;;;;10233733;28;19932;-59
2021/07/15 17:24:27;;;;;;;;;;;;;;;;;;10232727;28;20649;-63
2021/07/15 17:29:24;;;;;;;;;;;;;;;;;;10227976;28;20368;-61
2021/07/15 17:34:22;;;;;;;;;;;;;;;;;;10228140;28;20008;-58
2021/07/15 17:39:19;;;;;;;;;;;;;;;;;;10232647;28;19928;-61
2021/07/15 17:44:19;;;;;;;;;;;;;;;;;;10230859;28;19921;-58
2021/07/15 17:49:17;;;;;;;;;;;;;;;;;;10222066;28;19964;-57
2021/07/15 17:54:14;;;;;;;;;;;;;;;;;;10222570;28;19921;-59
2021/07/15 17:59:11;;;;;;;;;;;;;;;;;;10231336;28;19964;-58
2021/07/15 18:04:09;;;;;;;;;;;;;;;;;;10219585;28;19922;-58
2021/07/15 18:09:06;;;;;;;;;;;;;;;;;;10239443;28;19926;-58
2021/07/15 18:14:03;;;;;;;;;;;;;;;;;;10153939;28;19925;-61
2021/07/15 18:19:01;;;;;;;;;;;;;;;;;;10125214;28;19929;-62
2021/07/15 18:23:58;;;;;;;;;;;;;;;;;;10142962;28;19968;-58
2021/07/15 18:28:56;;;;;;;;;;;;;;;;;;10147964;28;20032;-63
2021/07/15 18:33:53;;;;;;;;;;;;;;;;;;10187786;28;19921;-58
2021/07/15 18:38:50;;;;;;;;;;;;;;;;;;10223066;28;19928;-59
2021/07/15 18:43:47;;;;;;;;;;;;;;;;;;10227668;28;19975;-58
2021/07/15 18:48:45;;;;;;;;;;;;;;;;;;10228938;28;20417;-62
2021/07/15 18:53:42;;;;;;;;;;;;;;;;;;10190833;28;20899;-57
2021/07/15 18:58:39;;;;;;;;;;;;;;;;;;10234108;22;20142;-66
2021/07/15 19:03:36;;;;;;;;;;;;;;;;;;10351701;28;19917;-66
2021/07/15 19:08:34;;;;;;;;;;;;;;;;;;10354176;28;19924;-67
2021/07/15 19:13:31;;;;;;;;;;;;;;;;;;10350259;28;19964;-67
2021/07/15 19:18:28;;;;;;;;;;;;;;;;;;10340585;28;20147;-67
2021/07/15 19:23:26;;;;;;;;;;;;;;;;;;10345175;28;20350;-67
2021/07/15 19:28:23;;;;;;;;;;;;;;;;;;10344442;28;19921;-67
2021/07/15 19:33:20;;;;;;;;;;;;;;;;;;10362651;28;19932;-67
2021/07/15 19:38:18;;;;;;;;;;;;;;;;;;10349346;28;19952;-67
2021/07/15 19:43:15;;;;;;;;;;;;;;;;;;10353601;28;19932;-67
2021/07/15 19:48:12;;;;;;;;;;;;;;;;;;10364547;28;19921;-67
2021/07/15 19:53:10;;;;;;;;;;;;;;;;;;10358767;28;20361;-68
2021/07/15 19:58:07;;;;;;;;;;;;;;;;;;10355525;28;19928;-67
2021/07/15 20:03:04;;;;;;;;;;;;;;;;;;10371599;28;19924;-67
2021/07/15 20:08:02;;;;;;;;;;;;;;;;;;10373429;28;19916;-68
2021/07/15 20:12:59;;;;;;;;;;;;;;;;;;10345790;28;20253;-68
2021/07/15 20:17:59;;;;;;;;;;;;;;;;;;10371482;28;20748;-66
2021/07/15 20:22:57;;;;;;;;;;;;;;;;;;10363226;28;19917;-68
2021/07/15 20:27:54;;;;;;;;;;;;;;;;;;10355380;28;19917;-67
2021/07/15 20:32:51;;;;;;;;;;;;;;;;;;10379136;28;19927;-67
2021/07/15 20:37:49;;;;;;;;;;;;;;;;;;10358313;28;19920;-68
2021/07/15 20:42:47;;;;;;;;;;;;;;;;;;10368135;28;20220;-67
2021/07/15 20:47:45;;;;;;;;;;;;;;;;;;10359871;28;19931;-67
2021/07/15 20:52:42;;;;;;;;;;;;;;;;;;10348544;28;19926;-68
2021/07/15 20:57:41;;;;;;;;;;;;;;;;;;10366812;28;19920;-68
2021/07/15 21:02:38;;;;;;;;;;;;;;;;;;10370559;28;19978;-68
2021/07/15 21:07:35;;;;;;;;;;;;;;;;;;10358693;28;20210;-68
2021/07/15 21:12:33;;;;;;;;;;;;;;;;;;10346380;28;19916;-69
2021/07/15 21:17:31;;;;;;;;;;;;;;;;;;10352063;28;19973;-67
2021/07/15 21:22:30;;;;;;;;;;;;;;;;;;10354205;28;19995;-68
2021/07/15 21:27:28;;;;;;;;;;;;;;;;;;10354119;28;20035;-67
2021/07/15 21:32:26;;;;;;;;;;;;;;;;;;10361161;28;20073;-67
2021/07/15 21:37:23;;;;;;;;;;;;;;;;;;10361199;28;19920;-68
2021/07/15 21:42:21;;;;;;;;;;;;;;;;;;10359279;28;19920;-68
2021/07/15 21:47:18;;;;;;;;;;;;;;;;;;10351536;28;20055;-68
2021/07/15 21:52:15;;;;;;;;;;;;;;;;;;10352081;28;19917;-68
2021/07/15 21:57:13;;;;;;;;;;;;;;;;;;10364772;28;19966;-69
2021/07/15 22:02:10;;;;;;;;;;;;;;;;;;10344838;28;20058;-66
2021/07/15 22:07:07;;;;;;;;;;;;;;;;;;10369099;28;19921;-69
2021/07/15 22:12:04;;;;;;;;;;;;;;;;;;10379183;28;20356;-68
2021/07/15 22:17:02;;;;;;;;;;;;;;;;;;10367691;28;20393;-68
2021/07/15 22:21:59;;;;;;;;;;;;;;;;;;10371488;28;19970;-67
2021/07/15 22:26:56;;;;;;;;;;;;;;;;;;10369945;28;19920;-67
2021/07/15 22:31:55;;;;;;;;;;;;;;;;;;10372629;28;19916;-67
2021/07/15 22:36:52;;;;;;;;;;;;;;;;;;10369615;28;19927;-68
2021/07/15 22:41:49;;;;;;;;;;;;;;;;;;10367509;28;19984;-70
2021/07/15 22:46:47;;;;;;;;;;;;;;;;;;10346347;28;20275;-68
2021/07/15 22:51:44;;;;;;;;;;;;;;;;;;10367054;28;19927;-68
2021/07/15 22:56:41;;;;;;;;;;;;;;;;;;10377673;28;19928;-69
2021/07/15 23:01:38;;;;;;;;;;;;;;;;;;10366135;28;20019;-68
2021/07/15 23:06:36;;;;;;;;;;;;;;;;;;10367185;28;20011;-67
2021/07/15 23:11:33;;;;;;;;;;;;;;;;;;10365136;28;19917;-67
2021/07/15 23:16:30;;;;;;;;;;;;;;;;;;10378262;28;19921;-66
2021/07/15 23:21:28;;;;;;;;;;;;;;;;;;10379933;28;20378;-68
2021/07/15 23:26:25;;;;;;;;;;;;;;;;;;10371649;28;19916;-67
2021/07/15 23:31:22;;;;;;;;;;;;;;;;;;10375386;28;19971;-67
2021/07/15 23:36:19;;;;;;;;;;;;;;;;;;10365899;28;20010;-67
2021/07/15 23:41:17;;;;;;;;;;;;;;;;;;10378678;28;19923;-67
2021/07/15 23:46:14;;;;;;;;;;;;;;;;;;10388969;28;20384;-68
2021/07/15 23:51:11;;;;;;;;;;;;;;;;;;10378793;28;19927;-68
2021/07/15 23:56:08;;;;;;;;;;;;;;;;;;10372055;28;19932;-67
